createdAt,value
2016-11-13T00:01:06.506Z,99.99
2016-11-13T00:02:17.036Z,99.87
2016-11-13T00:03:27.772Z,99.78
2016-11-13T00:04:38.304Z,99.99
2016-11-13T00:06:03.364Z,99.87
2016-11-13T00:07:13.893Z,99.1
2016-11-13T00:08:24.424Z,99.2
2016-11-13T00:09:35.151Z,99.3
2016-11-13T00:10:45.679Z,99.2
2016-11-13T00:11:56.214Z,99.4
2016-11-13T00:13:06.748Z,99.3
2016-11-13T00:14:17.478Z,99.97
2016-11-13T00:15:28.006Z,99.3
2016-11-13T00:16:38.538Z,99.4
2016-11-13T00:17:49.066Z,99.97
2016-11-13T00:18:59.594Z,99.1
2016-11-13T00:20:24.649Z,99.2
2016-11-13T00:21:35.208Z,99.2
2016-11-13T00:22:45.738Z,99.3
2016-11-13T00:23:56.272Z,99.4
2016-11-13T00:25:06.813Z,99.4
2016-11-13T00:26:17.340Z,99.01
2016-11-13T00:27:27.869Z,99.49
2016-11-13T00:28:38.399Z,99.3
2016-11-13T00:29:48.926Z,99.1
2016-11-13T00:30:59.459Z,99.3
2016-11-13T00:32:09.994Z,99.99
2016-11-13T00:33:20.524Z,99.87
2016-11-13T00:34:31.051Z,99.99
2016-11-13T00:35:56.109Z,99.97
2016-11-13T00:37:06.646Z,99.3
2016-11-13T00:38:17.278Z,99.01
2016-11-13T00:39:27.808Z,99.99
2016-11-13T00:40:38.349Z,99.3
2016-11-13T00:41:48.908Z,99.01
2016-11-13T00:42:59.439Z,99.4
2016-11-13T00:44:10.463Z,99.97
2016-11-13T00:45:35.549Z,99.97
2016-11-13T00:46:46.083Z,99.2
2016-11-13T00:47:56.613Z,99.3
2016-11-13T00:49:07.338Z,99.3
2016-11-13T00:50:17.868Z,99.49
2016-11-13T00:51:28.399Z,98.91
2016-11-13T00:52:38.931Z,98.53
2016-11-13T00:53:49.464Z,99.2
2016-11-13T00:55:00.001Z,98.53
2016-11-13T00:56:10.531Z,98.53
2016-11-13T00:57:21.060Z,99.06
2016-11-13T00:58:31.600Z,98.53
2016-11-13T00:59:56.660Z,98.19
2016-11-13T01:01:07.191Z,98.43
2016-11-13T01:02:17.723Z,98.19
2016-11-13T01:03:28.251Z,98.72
2016-11-13T01:04:38.812Z,98.29
2016-11-13T01:05:49.541Z,98.48
2016-11-13T01:07:00.066Z,98
2016-11-13T01:08:10.634Z,97.81
2016-11-13T01:09:21.168Z,97.14
2016-11-13T01:10:31.697Z,97.52
2016-11-13T01:11:42.235Z,97.19
2016-11-13T01:12:52.764Z,97.71
2016-11-13T01:14:03.293Z,97.71
2016-11-13T01:15:13.824Z,97.14
2016-11-13T01:16:24.557Z,97.62
2016-11-13T01:17:35.087Z,97.62
2016-11-13T01:18:45.652Z,97.04
2016-11-13T01:20:10.706Z,97.62
2016-11-13T01:21:21.234Z,97.52
2016-11-13T01:22:31.865Z,97.42
2016-11-13T01:23:42.435Z,97.42
2016-11-13T01:24:52.964Z,97.24
2016-11-13T01:26:03.492Z,96.94
2016-11-13T01:27:28.749Z,97.42
2016-11-13T01:28:39.281Z,97.14
2016-11-13T01:29:49.807Z,97.71
2016-11-13T01:31:00.338Z,97.52
2016-11-13T01:32:10.999Z,97.81
2016-11-13T01:33:21.561Z,97.91
2016-11-13T01:34:32.094Z,97.66
2016-11-13T01:35:42.624Z,97.33
2016-11-13T01:36:53.149Z,98
2016-11-13T01:38:03.876Z,97.57
2016-11-13T01:39:14.404Z,97.91
2016-11-13T01:40:39.458Z,97.47
2016-11-13T01:41:49.991Z,97.66
2016-11-13T01:43:00.517Z,97.91
2016-11-13T01:44:11.246Z,97.33
2016-11-13T01:45:21.775Z,97.91
2016-11-13T01:46:32.302Z,97.71
2016-11-13T01:47:42.871Z,97.04
2016-11-13T01:48:53.601Z,97.33
2016-11-13T01:50:04.140Z,97.42
2016-11-13T01:51:14.667Z,97.33
2016-11-13T01:52:25.193Z,97.52
2016-11-13T01:53:35.722Z,98
2016-11-13T01:54:46.255Z,97.71
2016-11-13T01:55:56.753Z,97.42
2016-11-13T01:57:07.163Z,97.52
2016-11-13T01:58:17.573Z,97.81
2016-11-13T01:59:27.979Z,98.58
2016-11-13T02:00:38.493Z,97.81
2016-11-13T02:01:48.903Z,97.52
2016-11-13T02:02:59.309Z,97.14
2016-11-13T02:04:09.722Z,97.71
2016-11-13T02:05:20.136Z,97.42
2016-11-13T02:06:30.648Z,97.62
2016-11-13T02:07:41.062Z,97.62
2016-11-13T02:08:51.475Z,97.62
2016-11-13T02:10:01.888Z,97.91
2016-11-13T02:11:12.264Z,97.91
2016-11-13T02:12:22.685Z,98.48
2016-11-13T02:13:33.004Z,98.48
2016-11-13T02:14:43.322Z,98.58
2016-11-13T02:15:53.641Z,98
2016-11-13T02:18:28.844Z,98.05
2016-11-13T02:19:39.188Z,98.58
2016-11-13T02:20:49.519Z,98.19
2016-11-13T02:21:59.841Z,98.39
2016-11-13T02:23:10.356Z,98.68
2016-11-13T02:24:20.712Z,98.19
2016-11-13T02:25:31.031Z,98.39
2016-11-13T02:26:41.351Z,97.81
2016-11-13T02:27:51.701Z,98.29
2016-11-13T02:29:02.223Z,98.1
2016-11-13T02:30:12.546Z,98.48
2016-11-13T02:31:22.864Z,98.39
2016-11-13T02:32:33.181Z,99.06
2016-11-13T02:33:43.500Z,99.06
2016-11-13T02:34:54.024Z,98.96
2016-11-13T02:36:04.385Z,98.77
2016-11-13T02:37:14.710Z,98.39
2016-11-13T02:38:39.593Z,98.19
2016-11-13T02:39:49.943Z,99.06
2016-11-13T02:41:00.491Z,98.86
2016-11-13T02:42:25.376Z,99.06
2016-11-13T02:43:35.703Z,98.58
2016-11-13T02:45:00.796Z,98.96
2016-11-13T02:46:11.163Z,98.86
2016-11-13T02:47:21.481Z,98.68
2016-11-13T02:48:31.794Z,98.77
2016-11-13T02:49:42.119Z,98.58
2016-11-13T02:50:52.438Z,98.48
2016-11-13T02:52:02.759Z,98.39
2016-11-13T02:53:13.080Z,98.39
2016-11-13T02:54:23.400Z,98.19
2016-11-13T02:55:33.721Z,98.77
2016-11-13T02:56:44.039Z,98.96
2016-11-13T02:57:54.359Z,98.86
2016-11-13T02:59:04.679Z,98.77
2016-11-13T03:00:14.999Z,98.86
2016-11-13T03:01:39.905Z,98.39
2016-11-13T03:02:50.471Z,98.68
2016-11-13T03:04:00.790Z,98.77
2016-11-13T03:05:11.107Z,98.58
2016-11-13T03:06:21.428Z,98.48
2016-11-13T03:07:31.948Z,98.29
2016-11-13T03:08:42.267Z,98.86
2016-11-13T03:09:52.587Z,98.77
2016-11-13T03:11:02.908Z,98.96
2016-11-13T03:12:13.231Z,98.39
2016-11-13T03:13:23.750Z,98.68
2016-11-13T03:14:34.070Z,98.29
2016-11-13T03:15:44.388Z,97.71
2016-11-13T03:16:54.707Z,98.29
2016-11-13T03:18:05.025Z,97.91
2016-11-13T03:19:15.547Z,97.52
2016-11-13T03:20:25.874Z,98.58
2016-11-13T03:21:36.196Z,98.96
2016-11-13T03:22:46.516Z,99.06
2016-11-13T03:23:56.834Z,98.39
2016-11-13T03:25:07.261Z,98
2016-11-13T03:26:17.577Z,98.19
2016-11-13T03:27:27.899Z,98
2016-11-13T03:28:38.218Z,98.39
2016-11-13T03:29:48.535Z,97.81
2016-11-13T03:30:59.053Z,98.58
2016-11-13T03:32:09.405Z,98.48
2016-11-13T03:34:44.637Z,98.68
2016-11-13T03:36:09.519Z,98.39
2016-11-13T03:37:19.841Z,97.81
2016-11-13T03:38:30.159Z,98.39
2016-11-13T03:39:40.478Z,98.58
2016-11-13T03:41:05.363Z,98.1
2016-11-13T03:42:15.684Z,98.48
2016-11-13T03:43:26.035Z,98.29
2016-11-13T03:44:36.354Z,98.48
2016-11-13T03:45:46.672Z,98.19
2016-11-13T03:46:56.988Z,97.81
2016-11-13T03:48:07.307Z,98.48
2016-11-13T03:50:42.543Z,98.29
2016-11-13T03:51:52.912Z,98.48
2016-11-13T03:53:03.232Z,98.29
2016-11-13T03:54:13.556Z,98.68
2016-11-13T03:55:38.442Z,98.29
2016-11-13T03:56:48.760Z,98.29
2016-11-13T03:57:59.279Z,98.58
2016-11-13T03:59:09.601Z,98.68
2016-11-13T04:00:19.919Z,98.19
2016-11-13T04:01:30.241Z,98.19
2016-11-13T04:02:40.573Z,98.39
2016-11-13T04:03:51.088Z,98.48
2016-11-13T04:05:01.409Z,98.58
2016-11-13T04:06:11.728Z,98.86
2016-11-13T04:07:22.044Z,98.39
2016-11-13T04:08:32.366Z,98.39
2016-11-13T04:09:42.896Z,98.86
2016-11-13T04:10:53.223Z,98.39
2016-11-13T04:12:03.546Z,98.77
2016-11-13T04:13:13.866Z,98.77
2016-11-13T04:14:24.187Z,98.39
2016-11-13T04:15:34.502Z,98.48
2016-11-13T04:16:44.824Z,98.39
2016-11-13T04:17:55.147Z,98.77
2016-11-13T04:19:05.468Z,98.29
2016-11-13T04:20:30.352Z,98.19
2016-11-13T04:21:40.670Z,98.86
2016-11-13T04:22:50.990Z,98.86
2016-11-13T04:24:01.309Z,98.77
2016-11-13T04:25:11.629Z,98.19
2016-11-13T04:26:21.987Z,98.77
2016-11-13T04:27:32.396Z,98.53
2016-11-13T04:28:57.354Z,99.25
2016-11-13T04:30:07.773Z,99.3
2016-11-13T04:31:32.930Z,99.35
2016-11-13T04:32:43.340Z,99.2
2016-11-13T04:34:08.298Z,99.3
2016-11-13T04:35:18.708Z,99.25
2016-11-13T04:36:29.126Z,99.99
2016-11-13T04:37:39.638Z,99.35
2016-11-13T04:38:50.060Z,99.25
2016-11-13T04:40:00.471Z,99.06
2016-11-13T04:41:10.887Z,99.25
2016-11-13T04:42:21.394Z,99.2
2016-11-13T04:43:31.804Z,99.1
2016-11-13T04:44:42.248Z,99.3
2016-11-13T04:45:52.776Z,99.3
2016-11-13T04:47:03.313Z,99.25
2016-11-13T04:48:14.043Z,99.2
2016-11-13T04:49:24.571Z,99.1
2016-11-13T04:50:35.099Z,99.1
2016-11-13T04:51:45.625Z,99.87
2016-11-13T04:52:56.151Z,99.35
2016-11-13T04:54:06.790Z,98.91
2016-11-13T04:55:17.324Z,99.49
2016-11-13T04:56:27.884Z,99.25
2016-11-13T04:57:38.408Z,99.35
2016-11-13T04:58:48.950Z,99.54
2016-11-13T04:59:59.580Z,99.15
2016-11-13T05:01:10.117Z,99.63
2016-11-13T05:02:20.645Z,99.25
2016-11-13T05:03:31.175Z,99.54
2016-11-13T05:04:41.728Z,98.77
2016-11-13T05:05:52.295Z,99.44
2016-11-13T05:08:42.402Z,99.35
2016-11-13T05:09:52.935Z,99.44
2016-11-13T05:11:03.569Z,99.4
2016-11-13T05:12:28.625Z,99.15
2016-11-13T05:13:39.155Z,99.44
2016-11-13T05:14:49.683Z,98.82
2016-11-13T05:16:00.211Z,98.63
2016-11-13T05:17:10.938Z,99.2
2016-11-13T05:18:21.469Z,99.58
2016-11-13T05:19:31.996Z,99.3
2016-11-13T05:20:42.524Z,99.2
2016-11-13T05:21:53.063Z,99.58
2016-11-13T05:23:03.594Z,99.2
2016-11-13T05:24:14.125Z,99.3
2016-11-13T05:25:24.651Z,99.1
2016-11-13T05:26:35.213Z,99.2
2016-11-13T05:27:45.841Z,99.1
2016-11-13T05:28:56.376Z,99.01
2016-11-13T05:30:06.983Z,99.3
2016-11-13T05:31:17.509Z,99.97
2016-11-13T05:32:28.036Z,99.78
2016-11-13T05:33:38.772Z,99.78
2016-11-13T05:34:49.299Z,99.68
2016-11-13T05:35:59.829Z,99.78
2016-11-13T05:37:10.358Z,99.99
2016-11-13T05:38:20.890Z,99.99
2016-11-13T05:39:31.423Z,99.4
2016-11-13T05:40:41.947Z,99.3
2016-11-13T05:41:52.476Z,99.99
2016-11-13T05:43:03.004Z,99.68
2016-11-13T05:44:13.565Z,99.97
2016-11-13T05:45:24.212Z,99.97
2016-11-13T05:46:34.743Z,99.99
2016-11-13T05:47:59.796Z,99.87
2016-11-13T05:49:10.359Z,99.99
2016-11-13T05:50:20.886Z,99.97
2016-11-13T05:51:31.480Z,99.78
2016-11-13T05:52:41.889Z,99.78
2016-11-13T05:53:52.304Z,99.58
2016-11-13T05:55:02.766Z,99.99
2016-11-13T05:56:13.136Z,99.99
2016-11-13T05:57:23.459Z,99.99
2016-11-13T05:58:33.777Z,99.99
2016-11-13T05:59:44.092Z,99.97
2016-11-13T06:00:54.412Z,99.99
2016-11-13T06:02:04.931Z,99.99
2016-11-13T06:03:15.252Z,99.97
2016-11-13T06:04:40.137Z,99.99
2016-11-13T06:05:50.455Z,99.97
2016-11-13T06:07:00.811Z,99.99
2016-11-13T06:08:11.327Z,99.99
2016-11-13T06:09:21.647Z,99.99
2016-11-13T06:10:31.981Z,99.99
2016-11-13T06:11:42.298Z,99.99
2016-11-13T06:12:52.816Z,99.87
2016-11-13T06:14:03.139Z,99.68
2016-11-13T06:15:13.456Z,99.99
2016-11-13T06:16:23.779Z,99.99
2016-11-13T06:17:34.097Z,99.99
2016-11-13T06:18:44.614Z,99.99
2016-11-13T06:19:54.934Z,99.99
2016-11-13T06:21:05.251Z,99.99
2016-11-13T06:22:15.582Z,99.99
2016-11-13T06:23:25.899Z,99.99
2016-11-13T06:24:36.315Z,99.99
2016-11-13T06:25:46.633Z,99.99
2016-11-13T06:26:56.962Z,99.99
2016-11-13T06:28:07.295Z,99.99
2016-11-13T06:29:17.614Z,99.99
2016-11-13T06:30:28.133Z,99.99
2016-11-13T06:31:38.452Z,99.99
2016-11-13T06:32:48.769Z,99.99
2016-11-13T06:33:59.087Z,99.97
2016-11-13T06:35:09.409Z,99.99
2016-11-13T06:36:19.859Z,99.78
2016-11-13T06:37:30.180Z,99.99
2016-11-13T06:38:40.503Z,99.97
2016-11-13T06:39:50.821Z,99.68
2016-11-13T06:41:01.215Z,99.87
2016-11-13T06:42:11.836Z,99.99
2016-11-13T06:43:22.294Z,99.99
2016-11-13T06:44:32.704Z,99.99
2016-11-13T06:45:43.110Z,99.87
2016-11-13T06:46:53.519Z,99.99
2016-11-13T06:48:03.926Z,99.99
2016-11-13T06:49:14.341Z,99.99
2016-11-13T06:50:24.755Z,99.99
2016-11-13T06:51:35.166Z,99.99
2016-11-13T06:52:45.579Z,99.99
2016-11-13T06:53:56.225Z,99.99
2016-11-13T06:55:06.640Z,99.99
2016-11-13T06:56:17.051Z,99.68
2016-11-13T06:57:27.498Z,99.99
2016-11-13T06:58:52.472Z,99.99
2016-11-13T07:00:03.107Z,99.99
2016-11-13T07:01:13.640Z,99.78
2016-11-13T07:02:24.206Z,99.99
2016-11-13T07:03:34.735Z,99.78
2016-11-13T07:04:45.265Z,99.97
2016-11-13T07:07:20.853Z,99.99
2016-11-13T07:08:31.382Z,99.99
2016-11-13T07:09:41.918Z,99.99
2016-11-13T07:10:52.469Z,99.99
2016-11-13T07:12:03.000Z,99.99
2016-11-13T07:13:13.578Z,99.99
2016-11-13T07:14:24.107Z,99.99
2016-11-13T07:15:34.634Z,99.99
2016-11-13T07:16:45.162Z,99.99
2016-11-13T07:17:55.692Z,99.99
2016-11-13T07:19:06.220Z,99.99
2016-11-13T07:20:16.765Z,99.99
2016-11-13T07:21:27.499Z,99.99
2016-11-13T07:22:38.029Z,99.99
2016-11-13T07:23:48.555Z,99.99
2016-11-13T07:24:59.079Z,99.97
2016-11-13T07:26:10.074Z,99.99
2016-11-13T07:27:20.612Z,99.99
2016-11-13T07:28:31.046Z,99.99
2016-11-13T07:29:41.484Z,99.99
2016-11-13T07:30:51.920Z,99.99
2016-11-13T07:32:02.357Z,99.78
2016-11-13T07:33:12.793Z,99.78
2016-11-13T07:34:23.110Z,99.99
2016-11-13T07:35:33.429Z,99.99
2016-11-13T07:36:43.753Z,99.78
2016-11-13T07:37:54.547Z,99.99
2016-11-13T07:39:05.072Z,99.99
2016-11-13T07:40:15.386Z,99.99
2016-11-13T07:41:25.702Z,99.99
2016-11-13T07:42:36.023Z,99.99
2016-11-13T07:43:46.337Z,99.99
2016-11-13T07:44:56.859Z,99.99
2016-11-13T07:46:21.742Z,99.99
2016-11-13T07:47:32.065Z,99.99
2016-11-13T07:48:42.384Z,99.99
2016-11-13T07:49:52.701Z,99.99
2016-11-13T07:51:03.221Z,99.99
2016-11-13T07:52:13.539Z,99.99
2016-11-13T07:53:23.869Z,99.99
2016-11-13T07:54:34.197Z,99.99
2016-11-13T07:55:44.554Z,99.99
2016-11-13T07:56:55.177Z,99.99
2016-11-13T07:58:05.506Z,99.99
2016-11-13T07:59:15.823Z,99.99
2016-11-13T08:00:26.143Z,99.99
2016-11-13T08:01:36.660Z,99.99
2016-11-13T08:02:46.978Z,99.99
2016-11-13T08:03:57.294Z,99.99
2016-11-13T08:05:22.178Z,99.99
2016-11-13T08:06:32.533Z,99.99
2016-11-13T08:07:43.083Z,99.99
2016-11-13T08:08:53.518Z,99.99
2016-11-13T08:10:03.962Z,99.99
2016-11-13T08:11:14.435Z,99.99
2016-11-13T08:12:25.066Z,99.99
2016-11-13T08:13:36.011Z,99.99
2016-11-13T08:14:46.538Z,99.99
2016-11-13T08:15:57.103Z,99.99
2016-11-13T08:17:22.199Z,99.99
2016-11-13T08:18:32.931Z,99.99
2016-11-13T08:19:43.475Z,99.99
2016-11-13T08:20:54.007Z,99.99
2016-11-13T08:22:04.539Z,99.99
2016-11-13T08:23:15.066Z,99.99
2016-11-13T08:24:25.592Z,99.99
2016-11-13T08:25:36.125Z,99.99
2016-11-13T08:26:46.656Z,99.99
2016-11-13T08:27:57.187Z,99.99
2016-11-13T08:29:07.814Z,99.99
2016-11-13T08:30:18.379Z,99.99
2016-11-13T08:31:43.436Z,99.99
2016-11-13T08:32:53.967Z,99.99
2016-11-13T08:34:05.033Z,99.99
2016-11-13T08:35:15.662Z,99.99
2016-11-13T08:36:26.188Z,99.99
2016-11-13T08:37:37.214Z,99.99
2016-11-13T08:40:12.995Z,99.99
2016-11-13T08:41:23.524Z,99.99
2016-11-13T08:42:34.063Z,99.99
2016-11-13T08:43:44.592Z,99.99
2016-11-13T08:44:55.120Z,99.99
2016-11-13T08:46:05.650Z,99.99
2016-11-13T08:47:16.175Z,99.99
2016-11-13T08:48:26.702Z,99.99
2016-11-13T08:49:37.233Z,99.99
2016-11-13T08:50:48.004Z,99.99
2016-11-13T08:51:58.566Z,99.99
2016-11-13T08:53:09.124Z,99.99
2016-11-13T08:54:19.652Z,99.99
2016-11-13T08:55:30.185Z,99.99
2016-11-13T08:56:40.811Z,99.99
2016-11-13T08:57:51.340Z,99.99
2016-11-13T08:59:01.874Z,99.99
2016-11-13T09:00:12.409Z,99.99
2016-11-13T09:01:22.935Z,99.99
2016-11-13T09:02:33.702Z,99.99
2016-11-13T09:03:44.226Z,99.99
2016-11-13T09:04:54.753Z,99.99
2016-11-13T09:06:05.285Z,99.99
2016-11-13T09:07:15.811Z,99.99
2016-11-13T09:08:26.543Z,99.99
2016-11-13T09:09:37.070Z,99.99
2016-11-13T09:10:47.613Z,99.99
2016-11-13T09:11:58.144Z,99.99
2016-11-13T09:13:08.672Z,99.99
2016-11-13T09:14:19.399Z,99.99
2016-11-13T09:15:29.933Z,99.99
2016-11-13T09:16:40.493Z,99.99
2016-11-13T09:17:51.022Z,99.99
2016-11-13T09:19:01.550Z,99.99
2016-11-13T09:20:12.078Z,99.99
2016-11-13T09:21:23.215Z,99.99
2016-11-13T09:22:33.742Z,99.99
2016-11-13T09:23:44.269Z,99.99
2016-11-13T09:24:54.837Z,99.99
2016-11-13T09:26:05.464Z,99.99
2016-11-13T09:27:15.991Z,99.99
2016-11-13T09:28:26.520Z,99.99
2016-11-13T09:29:37.054Z,99.99
2016-11-13T09:30:47.588Z,99.99
2016-11-13T09:31:58.119Z,99.99
2016-11-13T09:33:08.650Z,99.99
2016-11-13T09:34:19.177Z,99.99
2016-11-13T09:35:29.707Z,99.99
2016-11-13T09:36:54.766Z,99.99
2016-11-13T09:38:05.496Z,99.99
2016-11-13T09:39:16.025Z,99.99
2016-11-13T09:40:26.551Z,99.99
2016-11-13T09:41:37.080Z,99.99
2016-11-13T09:42:47.639Z,99.99
2016-11-13T09:43:58.162Z,99.99
2016-11-13T09:45:08.692Z,99.99
2016-11-13T09:46:19.219Z,99.99
2016-11-13T09:47:30.256Z,99.99
2016-11-13T09:48:40.985Z,99.99
2016-11-13T09:49:51.513Z,99.99
2016-11-13T09:51:02.046Z,99.99
2016-11-13T09:52:12.608Z,99.99
2016-11-13T09:53:23.142Z,99.99
2016-11-13T09:54:33.673Z,99.99
2016-11-13T09:55:44.200Z,99.99
2016-11-13T09:56:54.729Z,99.99
2016-11-13T09:58:05.260Z,99.99
2016-11-13T09:59:15.790Z,99.99
2016-11-13T10:00:26.519Z,99.99
2016-11-13T10:01:37.045Z,99.99
2016-11-13T10:02:47.582Z,99.99
2016-11-13T10:03:58.114Z,99.99
2016-11-13T10:05:08.648Z,99.99
2016-11-13T10:06:33.906Z,99.99
2016-11-13T10:07:44.439Z,99.99
2016-11-13T10:08:54.968Z,99.99
2016-11-13T10:10:05.501Z,99.99
2016-11-13T10:11:16.128Z,99.99
2016-11-13T10:12:26.655Z,99.99
2016-11-13T10:13:37.188Z,99.99
2016-11-13T10:14:47.721Z,99.99
2016-11-13T10:15:58.758Z,99.99
2016-11-13T10:17:09.980Z,99.99
2016-11-13T10:18:20.508Z,99.99
2016-11-13T10:19:31.011Z,99.99
2016-11-13T10:20:41.425Z,99.99
2016-11-13T10:21:51.838Z,99.99
2016-11-13T10:23:02.450Z,99.99
2016-11-13T10:24:12.859Z,99.99
2016-11-13T10:25:23.270Z,99.83
2016-11-13T10:26:33.644Z,99.99
2016-11-13T10:27:43.959Z,99.99
2016-11-13T10:28:54.377Z,99.99
2016-11-13T10:30:04.695Z,99.99
2016-11-13T10:31:15.012Z,99.99
2016-11-13T10:32:39.903Z,99.99
2016-11-13T10:33:50.223Z,99.83
2016-11-13T10:36:25.634Z,99.99
2016-11-13T10:37:35.956Z,99.83
2016-11-13T10:38:46.277Z,99.44
2016-11-13T10:39:56.797Z,99.63
2016-11-13T10:41:07.165Z,99.35
2016-11-13T10:42:17.483Z,99.25
2016-11-13T10:43:27.797Z,99.35
2016-11-13T10:44:38.112Z,99.92
2016-11-13T10:45:48.428Z,99.83
2016-11-13T10:46:58.746Z,99.99
2016-11-13T10:48:09.066Z,99.25
2016-11-13T10:49:19.385Z,99.25
2016-11-13T10:50:29.903Z,99.15
2016-11-13T10:51:40.228Z,98.77
2016-11-13T10:52:50.557Z,99.15
2016-11-13T10:54:00.879Z,98.68
2016-11-13T10:55:11.200Z,99.06
2016-11-13T10:56:22.092Z,98.58
2016-11-13T10:57:32.413Z,98.77
2016-11-13T10:58:42.731Z,98.48
2016-11-13T10:59:53.053Z,98.58
2016-11-13T11:01:03.372Z,98.86
2016-11-13T11:02:13.891Z,99.06
2016-11-13T11:03:24.208Z,98.68
2016-11-13T11:04:34.562Z,99.15
2016-11-13T11:05:44.879Z,98.77
2016-11-13T11:08:20.383Z,99.06
2016-11-13T11:09:30.704Z,99.06
2016-11-13T11:10:41.053Z,99.25
2016-11-13T11:11:51.372Z,99.25
2016-11-13T11:13:01.889Z,99.35
2016-11-13T11:14:12.207Z,98.86
2016-11-13T11:16:47.427Z,99.15
2016-11-13T11:18:12.413Z,99.01
2016-11-13T11:19:22.728Z,98.34
2016-11-13T11:20:33.047Z,98.19
2016-11-13T11:21:57.936Z,99.3
2016-11-13T11:23:08.257Z,99.11
2016-11-13T11:24:18.776Z,99.3
2016-11-13T11:25:29.096Z,99.3
2016-11-13T11:26:39.420Z,99.21
2016-11-13T11:27:49.739Z,98.91
2016-11-13T11:29:00.158Z,99.21
2016-11-13T11:30:10.480Z,99.01
2016-11-13T11:31:20.806Z,99.4
2016-11-13T11:32:31.125Z,99.11
2016-11-13T11:33:41.921Z,98.91
2016-11-13T11:34:52.440Z,99.21
2016-11-13T11:36:02.761Z,99.06
2016-11-13T11:37:13.130Z,98.77
2016-11-13T11:38:23.449Z,98.29
2016-11-13T11:39:33.767Z,98.05
2016-11-13T11:40:44.286Z,97.38
2016-11-13T11:41:54.613Z,97.96
2016-11-13T11:43:04.930Z,98.63
2016-11-13T11:44:15.733Z,98.24
2016-11-13T11:45:26.052Z,98.14
2016-11-13T11:46:36.475Z,98.44
2016-11-13T11:47:46.808Z,98.29
2016-11-13T11:48:57.125Z,98.77
2016-11-13T11:50:07.445Z,98.1
2016-11-13T11:51:17.770Z,97.91
2016-11-13T11:52:28.290Z,98.53
2016-11-13T11:53:38.618Z,98.39
2016-11-13T11:54:48.943Z,97.62
2016-11-13T11:55:59.299Z,97.57
2016-11-13T11:57:09.708Z,97.38
2016-11-13T11:58:20.317Z,98.53
2016-11-13T11:59:30.730Z,98.34
2016-11-13T12:00:41.139Z,98.34
2016-11-13T12:01:51.552Z,98.14
2016-11-13T12:03:01.960Z,97.86
2016-11-13T12:04:12.470Z,98.14
2016-11-13T12:05:22.877Z,98.44
2016-11-13T12:06:33.776Z,98.72
2016-11-13T12:07:44.189Z,99.11
2016-11-13T12:08:54.604Z,98.53
2016-11-13T12:10:05.214Z,98.24
2016-11-13T12:11:15.623Z,98.24
2016-11-13T12:12:26.516Z,98.72
2016-11-13T12:13:37.415Z,99.01
2016-11-13T12:14:47.817Z,99.11
2016-11-13T12:15:58.328Z,99.3
2016-11-13T12:17:08.740Z,99.4
2016-11-13T12:18:19.153Z,99.21
2016-11-13T12:20:55.007Z,99.99
2016-11-13T12:22:19.971Z,99.98
2016-11-13T12:23:30.385Z,99.98
2016-11-13T12:24:55.343Z,99.99
2016-11-13T12:26:05.758Z,99.99
2016-11-13T12:27:16.169Z,99.99
2016-11-13T12:28:26.580Z,99.99
2016-11-13T12:29:36.990Z,99.98
2016-11-13T12:30:47.404Z,99.88
2016-11-13T12:31:57.938Z,99.99
2016-11-13T12:33:22.897Z,99.98
2016-11-13T12:34:33.311Z,99.99
2016-11-13T12:35:43.721Z,99.78
2016-11-13T12:36:54.140Z,99.4
2016-11-13T12:38:04.747Z,99.78
2016-11-13T12:39:15.161Z,99.99
2016-11-13T12:40:26.055Z,99.99
2016-11-13T12:41:36.467Z,99.68
2016-11-13T12:42:47.084Z,99.88
2016-11-13T12:44:12.045Z,99.93
2016-11-13T12:45:22.458Z,99.99
2016-11-13T12:46:47.949Z,99.99
2016-11-13T12:47:58.560Z,99.49
2016-11-13T12:49:08.972Z,99.99
2016-11-13T12:50:19.382Z,99.93
2016-11-13T12:51:29.794Z,99.99
2016-11-13T12:52:40.209Z,99.99
2016-11-13T12:53:50.826Z,99.99
2016-11-13T12:55:01.239Z,99.99
2016-11-13T12:56:11.649Z,99.99
2016-11-13T12:57:22.064Z,99.35
2016-11-13T12:58:32.475Z,99.99
2016-11-13T12:59:43.089Z,99.99
2016-11-13T13:00:53.507Z,99.26
2016-11-13T13:02:03.917Z,99.26
2016-11-13T13:03:14.326Z,99.06
2016-11-13T13:04:24.734Z,99.06
2016-11-13T13:05:35.348Z,99.35
2016-11-13T13:06:45.762Z,99.44
2016-11-13T13:07:56.172Z,98.68
2016-11-13T13:09:06.583Z,99.35
2016-11-13T13:10:16.995Z,99.44
2016-11-13T13:11:27.404Z,98.87
2016-11-13T13:12:37.817Z,98.96
2016-11-13T13:13:48.235Z,98.1
2016-11-13T13:14:58.649Z,98.68
2016-11-13T13:16:09.060Z,99.16
2016-11-13T13:17:19.472Z,99.44
2016-11-13T13:18:29.886Z,99.93
2016-11-13T13:19:40.295Z,99.99
2016-11-13T13:20:50.703Z,99.54
2016-11-13T13:22:01.137Z,99.35
2016-11-13T13:23:11.748Z,98.87
2016-11-13T13:24:22.158Z,99.35
2016-11-13T13:25:32.582Z,99.26
2016-11-13T13:26:42.993Z,99.35
2016-11-13T13:27:53.406Z,99.16
2016-11-13T13:29:04.021Z,98.87
2016-11-13T13:30:14.432Z,99.06
2016-11-13T13:31:25.728Z,99.35
2016-11-13T13:32:36.139Z,99.99
2016-11-13T13:33:46.549Z,99.93
2016-11-13T13:34:57.158Z,99.99
2016-11-13T13:36:07.572Z,99.99
2016-11-13T13:37:17.984Z,98.87
2016-11-13T13:38:28.389Z,98.96
2016-11-13T13:39:38.803Z,98.87
2016-11-13T13:40:49.420Z,99.06
2016-11-13T13:41:59.830Z,98.68
2016-11-13T13:43:10.245Z,98.77
2016-11-13T13:44:20.655Z,99.16
2016-11-13T13:45:31.068Z,98.77
2016-11-13T13:46:41.683Z,98.96
2016-11-13T13:47:52.135Z,98.96
2016-11-13T13:49:02.551Z,99.54
2016-11-13T13:50:12.960Z,99.93
2016-11-13T13:51:23.372Z,99.99
2016-11-13T13:52:48.531Z,99.16
2016-11-13T13:53:58.942Z,99.44
2016-11-13T13:55:09.841Z,99.99
2016-11-13T13:56:34.798Z,99.26
2016-11-13T13:57:45.412Z,99.16
2016-11-13T13:58:55.822Z,99.83
2016-11-13T14:00:06.243Z,99.99
2016-11-13T14:01:17.172Z,99.99
2016-11-13T14:02:27.585Z,99.93
2016-11-13T14:03:38.030Z,99.99
2016-11-13T14:04:48.440Z,99.99
2016-11-13T14:05:58.851Z,99.99
2016-11-13T14:07:09.300Z,99.4
2016-11-13T14:09:44.765Z,99.99
2016-11-13T14:10:55.149Z,99.99
2016-11-13T14:12:05.472Z,99.93
2016-11-13T14:13:15.793Z,99.69
2016-11-13T14:14:26.114Z,99.35
2016-11-13T14:15:36.434Z,99.69
2016-11-13T14:16:46.758Z,99.4
2016-11-13T14:17:57.109Z,98.39
2016-11-13T14:19:07.428Z,98.77
2016-11-13T14:20:17.849Z,98.68
2016-11-13T14:21:28.165Z,99.11
2016-11-13T14:22:38.486Z,99.21
2016-11-13T14:23:48.810Z,99.21
2016-11-13T14:24:59.133Z,98.63
2016-11-13T14:26:09.659Z,98.24
2016-11-13T14:27:20.013Z,98.92
2016-11-13T14:28:30.335Z,99.01
2016-11-13T14:29:40.655Z,99.49
2016-11-13T14:30:50.978Z,99.99
2016-11-13T14:32:01.497Z,99.99
2016-11-13T14:33:11.815Z,99.99
2016-11-13T14:34:22.133Z,99.01
2016-11-13T14:35:32.454Z,99.11
2016-11-13T14:37:12.005Z,99.01
2016-11-13T14:38:22.327Z,99.4
2016-11-13T14:39:32.644Z,99.99
2016-11-13T14:40:57.535Z,99.99
2016-11-13T14:42:07.859Z,98.44
2016-11-13T14:43:18.281Z,99.3
2016-11-13T14:44:28.599Z,99.98
2016-11-13T14:45:38.918Z,99.49
2016-11-13T14:46:49.237Z,99.59
2016-11-13T14:47:59.761Z,99.4
2016-11-13T14:49:10.082Z,99.49
2016-11-13T14:50:20.411Z,99.3
2016-11-13T14:51:45.296Z,99.21
2016-11-13T14:52:55.613Z,98.63
2016-11-13T14:54:05.932Z,98.92
2016-11-13T14:55:16.248Z,99.4
2016-11-13T14:56:26.565Z,99.4
2016-11-13T14:57:36.916Z,99.21
2016-11-13T14:58:47.809Z,99.59
2016-11-13T14:59:58.137Z,99.99
2016-11-13T15:01:08.455Z,99.99
2016-11-13T15:02:18.796Z,99.99
2016-11-13T15:03:29.114Z,99.99
2016-11-13T15:04:39.535Z,99.99
2016-11-13T15:05:49.854Z,99.99
2016-11-13T15:07:00.175Z,99.99
2016-11-13T15:08:10.497Z,99.99
2016-11-13T15:09:20.850Z,99.99
2016-11-13T15:10:31.398Z,99.99
2016-11-13T15:11:41.721Z,99.99
2016-11-13T15:12:52.048Z,99.99
2016-11-13T15:14:02.402Z,99.98
2016-11-13T15:15:12.758Z,99.99
2016-11-13T15:16:23.078Z,99.99
2016-11-13T15:17:33.400Z,99.99
2016-11-13T15:18:43.717Z,99.99
2016-11-13T15:19:54.034Z,99.98
2016-11-13T15:21:04.358Z,99.99
2016-11-13T15:22:14.845Z,99.59
2016-11-13T15:23:25.283Z,99.99
2016-11-13T15:24:35.716Z,99.49
2016-11-13T15:25:46.153Z,99.99
2016-11-13T15:27:11.132Z,99.98
2016-11-13T15:28:22.271Z,99.93
2016-11-13T15:29:32.708Z,99.99
2016-11-13T15:30:43.143Z,99.88
2016-11-13T15:31:53.585Z,99.99
2016-11-13T15:33:04.223Z,99.99
2016-11-13T15:34:14.660Z,99.83
2016-11-13T15:35:39.637Z,99.99
2016-11-13T15:36:50.082Z,99.83
2016-11-13T15:38:00.521Z,99.93